sensor_id;sensor_type;location;lat;lon;timestamp;pressure;altitude;pressure_sealevel;temperature;humidity
65190;BME280;51777;53.570;9.984;2023-03-14T00:01:17;98540.56;;;11.43;100.00
65190;BME280;51777;53.570;9.984;2023-03-14T00:03:42;98552.50;;;11.44;100.00
65190;BME280;51777;53.570;9.984;2023-03-14T00:06:09;98564.66;;;11.44;100.00
65190;BME280;51777;53.570;9.984;2023-03-14T00:08:35;98560.06;;;11.39;100.00
65190;BME280;51777;53.570;9.984;2023-03-14T00:11:15;98561.88;;;11.32;100.00
65190;BME280;51777;53.570;9.984;2023-03-14T00:13:41;98564.47;;;11.32;100.00
65190;BME280;51777;53.570;9.984;2023-03-14T00:16:09;98577.81;;;11.29;100.00
65190;BME280;51777;53.570;9.984;2023-03-14T00:18:35;98584.19;;;11.27;100.00
65190;BME280;51777;53.570;9.984;2023-03-14T00:21:02;98579.81;;;11.27;100.00
65190;BME280;51777;53.570;9.984;2023-03-14T00:23:29;98578.22;;;11.26;100.00
65190;BME280;51777;53.570;9.984;2023-03-14T00:26:03;98581.59;;;11.27;100.00
65190;BME280;51777;53.570;9.984;2023-03-14T00:28:29;98586.19;;;11.25;100.00
65190;BME280;51777;53.570;9.984;2023-03-14T00:30:55;98564.47;;;11.26;100.00
65190;BME280;51777;53.570;9.984;2023-03-14T00:33:21;98555.72;;;11.27;100.00
65190;BME280;51777;53.570;9.984;2023-03-14T00:36:14;98549.38;;;11.23;100.00
65190;BME280;51777;53.570;9.984;2023-03-14T00:38:41;98532.84;;;11.24;100.00
65190;BME280;51777;53.570;9.984;2023-03-14T00:41:12;98541.41;;;11.24;100.00
65190;BME280;51777;53.570;9.984;2023-03-14T00:43:38;98552.13;;;11.28;100.00
65190;BME280;51777;53.570;9.984;2023-03-14T00:46:04;98532.44;;;11.27;100.00
65190;BME280;51777;53.570;9.984;2023-03-14T00:48:30;98530.84;;;11.26;100.00
65190;BME280;51777;53.570;9.984;2023-03-14T00:50:59;98515.53;;;11.24;100.00
65190;BME280;51777;53.570;9.984;2023-03-14T00:53:24;98517.13;;;11.25;100.00
65190;BME280;51777;53.570;9.984;2023-03-14T00:55:50;98527.88;;;11.29;100.00
65190;BME280;51777;53.570;9.984;2023-03-14T00:58:17;98530.63;;;11.34;100.00
65190;BME280;51777;53.570;9.984;2023-03-14T01:00:44;98528.22;;;11.39;100.00
65190;BME280;51777;53.570;9.984;2023-03-14T01:03:10;98525.25;;;11.42;100.00
65190;BME280;51777;53.570;9.984;2023-03-14T01:05:36;98537.19;;;11.43;100.00
65190;BME280;51777;53.570;9.984;2023-03-14T01:08:02;98545.53;;;11.45;100.00
65190;BME280;51777;53.570;9.984;2023-03-14T01:10:28;98550.69;;;11.45;100.00
65190;BME280;51777;53.570;9.984;2023-03-14T01:12:53;98539.34;;;11.46;100.00
65190;BME280;51777;53.570;9.984;2023-03-14T01:15:19;98546.13;;;11.47;100.00
65190;BME280;51777;53.570;9.984;2023-03-14T01:17:44;98558.47;;;11.45;100.00
65190;BME280;51777;53.570;9.984;2023-03-14T01:20:12;98558.06;;;11.48;100.00
65190;BME280;51777;53.570;9.984;2023-03-14T01:22:39;98554.47;;;11.49;100.00
65190;BME280;51777;53.570;9.984;2023-03-14T01:25:16;98549.28;;;11.49;100.00
65190;BME280;51777;53.570;9.984;2023-03-14T01:27:41;98551.28;;;11.47;100.00
65190;BME280;51777;53.570;9.984;2023-03-14T01:30:09;98549.28;;;11.49;100.00
65190;BME280;51777;53.570;9.984;2023-03-14T01:32:35;98542.91;;;11.52;100.00
65190;BME280;51777;53.570;9.984;2023-03-14T01:35:00;98522.59;;;11.55;100.00
65190;BME280;51777;53.570;9.984;2023-03-14T01:37:26;98510.25;;;11.57;100.00
65190;BME280;51777;53.570;9.984;2023-03-14T01:39:51;98504.47;;;11.55;100.00
65190;BME280;51777;53.570;9.984;2023-03-14T01:42:16;98499.13;;;11.50;100.00
65190;BME280;51777;53.570;9.984;2023-03-14T01:44:53;98477.81;;;11.48;100.00
65190;BME280;51777;53.570;9.984;2023-03-14T01:47:19;98467.31;;;11.43;100.00
65190;BME280;51777;53.570;9.984;2023-03-14T01:49:47;98472.09;;;11.39;100.00
65190;BME280;51777;53.570;9.984;2023-03-14T01:52:20;98469.72;;;11.38;100.00
65190;BME280;51777;53.570;9.984;2023-03-14T01:54:50;98467.13;;;11.38;100.00
65190;BME280;51777;53.570;9.984;2023-03-14T01:59:58;98480.09;;;11.31;100.00
65190;BME280;51777;53.570;9.984;2023-03-14T02:02:26;98491.66;;;11.29;100.00
65190;BME280;51777;53.570;9.984;2023-03-14T02:04:54;98483.50;;;11.25;100.00
65190;BME280;51777;53.570;9.984;2023-03-14T02:09:59;98472.19;;;11.20;100.00
65190;BME280;51777;53.570;9.984;2023-03-14T02:12:25;98457.25;;;11.22;100.00
65190;BME280;51777;53.570;9.984;2023-03-14T02:14:51;98437.38;;;11.15;100.00
65190;BME280;51777;53.570;9.984;2023-03-14T02:17:18;98429.44;;;11.17;100.00
65190;BME280;51777;53.570;9.984;2023-03-14T02:22:15;98401.22;;;11.09;100.00
65190;BME280;51777;53.570;9.984;2023-03-14T02:25:04;98406.22;;;11.04;100.00
65190;BME280;51777;53.570;9.984;2023-03-14T02:27:33;98411.97;;;10.99;100.00
65190;BME280;51777;53.570;9.984;2023-03-14T02:30:01;98422.53;;;10.98;100.00
65190;BME280;51777;53.570;9.984;2023-03-14T02:32:30;98423.31;;;10.98;100.00
65190;BME280;51777;53.570;9.984;2023-03-14T02:34:58;98413.59;;;10.94;100.00
65190;BME280;51777;53.570;9.984;2023-03-14T02:37:33;98414.78;;;10.91;100.00
65190;BME280;51777;53.570;9.984;2023-03-14T02:40:00;98416.78;;;10.89;100.00
65190;BME280;51777;53.570;9.984;2023-03-14T02:42:25;98410.03;;;10.88;100.00
65190;BME280;51777;53.570;9.984;2023-03-14T02:47:19;98425.13;;;10.91;100.00
65190;BME280;51777;53.570;9.984;2023-03-14T02:49:46;98431.50;;;10.95;100.00
65190;BME280;51777;53.570;9.984;2023-03-14T02:52:11;98439.25;;;10.95;100.00
65190;BME280;51777;53.570;9.984;2023-03-14T02:54:37;98430.50;;;10.96;100.00
65190;BME280;51777;53.570;9.984;2023-03-14T02:57:03;98436.47;;;10.97;100.00
65190;BME280;51777;53.570;9.984;2023-03-14T02:59:28;98433.66;;;10.98;100.00
65190;BME280;51777;53.570;9.984;2023-03-14T03:01:54;98435.63;;;11.03;100.00
65190;BME280;51777;53.570;9.984;2023-03-14T03:04:19;98440.22;;;11.07;100.00
65190;BME280;51777;53.570;9.984;2023-03-14T03:06:44;98433.25;;;11.08;100.00
65190;BME280;51777;53.570;9.984;2023-03-14T03:09:10;98434.19;;;11.13;100.00
65190;BME280;51777;53.570;9.984;2023-03-14T03:11:35;98437.19;;;11.17;100.00
65190;BME280;51777;53.570;9.984;2023-03-14T03:14:00;98435.41;;;11.17;100.00
65190;BME280;51777;53.570;9.984;2023-03-14T03:16:26;98432.03;;;11.17;100.00
65190;BME280;51777;53.570;9.984;2023-03-14T03:18:51;98429.22;;;11.18;100.00
65190;BME280;51777;53.570;9.984;2023-03-14T03:21:17;98430.81;;;11.20;100.00
65190;BME280;51777;53.570;9.984;2023-03-14T03:23:44;98417.28;;;11.17;100.00
65190;BME280;51777;53.570;9.984;2023-03-14T03:26:09;98419.25;;;11.15;100.00
65190;BME280;51777;53.570;9.984;2023-03-14T03:28:36;98407.31;;;11.21;100.00
65190;BME280;51777;53.570;9.984;2023-03-14T03:31:09;98396.56;;;11.24;100.00
65190;BME280;51777;53.570;9.984;2023-03-14T03:33:36;98392.34;;;11.30;100.00
65190;BME280;51777;53.570;9.984;2023-03-14T03:36:01;98396.09;;;11.34;100.00
65190;BME280;51777;53.570;9.984;2023-03-14T03:38:26;98402.44;;;11.38;100.00
65190;BME280;51777;53.570;9.984;2023-03-14T03:40:52;98391.09;;;11.39;100.00
65190;BME280;51777;53.570;9.984;2023-03-14T03:43:17;98383.91;;;11.41;100.00
65190;BME280;51777;53.570;9.984;2023-03-14T03:45:43;98378.94;;;11.39;100.00
65190;BME280;51777;53.570;9.984;2023-03-14T03:48:09;98371.97;;;11.40;100.00
65190;BME280;51777;53.570;9.984;2023-03-14T03:50:35;98372.63;;;11.35;100.00
65190;BME280;51777;53.570;9.984;2023-03-14T03:53:01;98376.41;;;11.33;100.00
65190;BME280;51777;53.570;9.984;2023-03-14T03:55:26;98378.41;;;11.31;100.00
65190;BME280;51777;53.570;9.984;2023-03-14T03:57:53;98374.66;;;11.27;100.00
65190;BME280;51777;53.570;9.984;2023-03-14T04:00:18;98386.19;;;11.31;100.00
65190;BME280;51777;53.570;9.984;2023-03-14T04:02:44;98387.19;;;11.30;100.00
65190;BME280;51777;53.570;9.984;2023-03-14T04:05:09;98385.00;;;11.27;100.00
65190;BME280;51777;53.570;9.984;2023-03-14T04:07:35;98373.84;;;11.26;100.00
65190;BME280;51777;53.570;9.984;2023-03-14T04:10:00;98369.31;;;11.22;100.00
65190;BME280;51777;53.570;9.984;2023-03-14T04:12:26;98366.72;;;11.22;100.00
65190;BME280;51777;53.570;9.984;2023-03-14T04:14:51;98366.16;;;11.20;100.00
65190;BME280;51777;53.570;9.984;2023-03-14T04:17:16;98361.19;;;11.18;100.00
65190;BME280;51777;53.570;9.984;2023-03-14T04:19:42;98352.81;;;11.16;100.00
65190;BME280;51777;53.570;9.984;2023-03-14T04:22:08;98361.00;;;11.13;100.00
65190;BME280;51777;53.570;9.984;2023-03-14T04:24:34;98357.63;;;11.12;100.00
65190;BME280;51777;53.570;9.984;2023-03-14T04:26:59;98359.63;;;11.10;100.00
65190;BME280;51777;53.570;9.984;2023-03-14T04:29:25;98360.84;;;11.08;100.00
65190;BME280;51777;53.570;9.984;2023-03-14T04:31:50;98358.47;;;11.06;100.00
65190;BME280;51777;53.570;9.984;2023-03-14T04:34:16;98353.28;;;11.06;100.00
65190;BME280;51777;53.570;9.984;2023-03-14T04:36:41;98358.47;;;11.06;100.00
65190;BME280;51777;53.570;9.984;2023-03-14T04:39:06;98350.69;;;11.06;100.00
65190;BME280;51777;53.570;9.984;2023-03-14T04:41:32;98360.25;;;11.06;100.00
65190;BME280;51777;53.570;9.984;2023-03-14T04:43:57;98352.88;;;11.09;100.00
65190;BME280;51777;53.570;9.984;2023-03-14T04:46:23;98344.53;;;11.07;100.00
65190;BME280;51777;53.570;9.984;2023-03-14T04:48:48;98349.69;;;11.07;100.00
65190;BME280;51777;53.570;9.984;2023-03-14T04:51:14;98346.69;;;11.10;100.00
65190;BME280;51777;53.570;9.984;2023-03-14T04:53:39;98351.44;;;11.13;100.00
65190;BME280;51777;53.570;9.984;2023-03-14T04:56:05;98348.84;;;11.13;100.00
65190;BME280;51777;53.570;9.984;2023-03-14T04:58:31;98337.72;;;11.13;100.00
65190;BME280;51777;53.570;9.984;2023-03-14T05:01:02;98340.09;;;11.14;100.00
65190;BME280;51777;53.570;9.984;2023-03-14T05:03:28;98331.75;;;11.12;100.00
65190;BME280;51777;53.570;9.984;2023-03-14T05:05:54;98331.94;;;11.17;100.00
65190;BME280;51777;53.570;9.984;2023-03-14T05:08:20;98332.34;;;11.14;100.00
65190;BME280;51777;53.570;9.984;2023-03-14T05:10:52;98332.94;;;11.16;100.00
65190;BME280;51777;53.570;9.984;2023-03-14T05:13:18;98335.53;;;11.16;100.00
65190;BME280;51777;53.570;9.984;2023-03-14T05:15:43;98351.50;;;11.07;100.00
65190;BME280;51777;53.570;9.984;2023-03-14T05:18:08;98352.00;;;10.84;100.00
65190;BME280;51777;53.570;9.984;2023-03-14T05:20:34;98346.34;;;10.49;100.00
65190;BME280;51777;53.570;9.984;2023-03-14T05:23:00;98333.91;;;10.26;100.00
65190;BME280;51777;53.570;9.984;2023-03-14T05:25:26;98339.69;;;10.08;100.00
65190;BME280;51777;53.570;9.984;2023-03-14T05:27:54;98332.91;;;10.00;100.00
65190;BME280;51777;53.570;9.984;2023-03-14T05:30:20;98327.59;;;9.82;100.00
65190;BME280;51777;53.570;9.984;2023-03-14T05:32:46;98327.59;;;9.82;100.00
65190;BME280;51777;53.570;9.984;2023-03-14T05:35:12;98324.59;;;9.79;100.00
65190;BME280;51777;53.570;9.984;2023-03-14T05:37:37;98324.78;;;9.77;100.00
65190;BME280;51777;53.570;9.984;2023-03-14T05:40:04;98327.78;;;9.74;100.00
65190;BME280;51777;53.570;9.984;2023-03-14T05:42:31;98322.63;;;9.67;100.00
65190;BME280;51777;53.570;9.984;2023-03-14T05:44:57;98323.00;;;9.64;100.00
65190;BME280;51777;53.570;9.984;2023-03-14T05:47:22;98318.44;;;9.66;100.00
65190;BME280;51777;53.570;9.984;2023-03-14T05:49:47;98307.94;;;9.68;100.00
65190;BME280;51777;53.570;9.984;2023-03-14T05:52:14;98310.34;;;9.69;100.00
65190;BME280;51777;53.570;9.984;2023-03-14T05:54:39;98301.97;;;9.74;100.00
65190;BME280;51777;53.570;9.984;2023-03-14T05:57:05;98295.81;;;9.75;100.00
65190;BME280;51777;53.570;9.984;2023-03-14T05:59:30;98300.56;;;9.78;100.00
65190;BME280;51777;53.570;9.984;2023-03-14T06:01:56;98299.00;;;9.84;100.00
65190;BME280;51777;53.570;9.984;2023-03-14T06:04:21;98298.97;;;9.90;100.00
65190;BME280;51777;53.570;9.984;2023-03-14T06:06:46;98298.38;;;9.95;100.00
65190;BME280;51777;53.570;9.984;2023-03-14T06:09:12;98294.00;;;10.02;100.00
65190;BME280;51777;53.570;9.984;2023-03-14T06:11:37;98297.97;;;10.05;100.00
65190;BME280;51777;53.570;9.984;2023-03-14T06:14:03;98283.47;;;10.04;100.00
65190;BME280;51777;53.570;9.984;2023-03-14T06:16:28;98296.00;;;10.07;100.00
65190;BME280;51777;53.570;9.984;2023-03-14T06:18:54;98294.78;;;10.02;100.00
65190;BME280;51777;53.570;9.984;2023-03-14T06:21:19;98303.13;;;10.11;100.00
65190;BME280;51777;53.570;9.984;2023-03-14T06:23:45;98301.50;;;10.17;100.00
65190;BME280;51777;53.570;9.984;2023-03-14T06:26:10;98296.00;;;10.07;100.00
65190;BME280;51777;53.570;9.984;2023-03-14T06:28:37;98317.44;;;10.07;100.00
65190;BME280;51777;53.570;9.984;2023-03-14T06:31:03;98314.81;;;10.14;100.00
65190;BME280;51777;53.570;9.984;2023-03-14T06:33:28;98319.41;;;10.12;100.00
65190;BME280;51777;53.570;9.984;2023-03-14T06:35:54;98329.34;;;10.01;100.00
65190;BME280;51777;53.570;9.984;2023-03-14T06:38:19;98325.75;;;10.02;100.00
65190;BME280;51777;53.570;9.984;2023-03-14T06:40:45;98328.13;;;10.04;100.00
65190;BME280;51777;53.570;9.984;2023-03-14T06:43:11;98339.47;;;10.23;100.00
65190;BME280;51777;53.570;9.984;2023-03-14T06:45:37;98339.84;;;10.33;100.00
65190;BME280;51777;53.570;9.984;2023-03-14T06:48:03;98341.59;;;10.39;100.00
65190;BME280;51777;53.570;9.984;2023-03-14T06:50:28;98339.22;;;10.38;100.00
65190;BME280;51777;53.570;9.984;2023-03-14T06:52:54;98342.44;;;10.33;100.00
65190;BME280;51777;53.570;9.984;2023-03-14T06:55:20;98347.59;;;10.26;100.00
65190;BME280;51777;53.570;9.984;2023-03-14T06:57:46;98350.38;;;10.25;100.00
65190;BME280;51777;53.570;9.984;2023-03-14T07:00:12;98354.75;;;10.18;100.00
65190;BME280;51777;53.570;9.984;2023-03-14T07:02:38;98359.94;;;10.18;100.00
65190;BME280;51777;53.570;9.984;2023-03-14T07:05:03;98362.09;;;10.21;100.00
65190;BME280;51777;53.570;9.984;2023-03-14T07:07:30;98361.13;;;10.22;100.00
65190;BME280;51777;53.570;9.984;2023-03-14T07:09:55;98367.66;;;10.24;100.00
65190;BME280;51777;53.570;9.984;2023-03-14T07:12:21;98376.22;;;10.32;100.00
65190;BME280;51777;53.570;9.984;2023-03-14T07:14:46;98368.25;;;10.26;100.00
65190;BME280;51777;53.570;9.984;2023-03-14T07:17:11;98372.03;;;10.24;100.00
65190;BME280;51777;53.570;9.984;2023-03-14T07:19:38;98372.44;;;10.34;100.00
65190;BME280;51777;53.570;9.984;2023-03-14T07:22:06;98367.41;;;10.52;100.00
65190;BME280;51777;53.570;9.984;2023-03-14T07:24:32;98374.78;;;10.49;100.00
65190;BME280;51777;53.570;9.984;2023-03-14T07:26:57;98379.31;;;10.53;100.00
65190;BME280;51777;53.570;9.984;2023-03-14T07:29:23;98384.31;;;10.55;100.00
65190;BME280;51777;53.570;9.984;2023-03-14T07:31:49;98379.06;;;10.75;100.00
65190;BME280;51777;53.570;9.984;2023-03-14T07:34:14;98378.06;;;10.76;100.00
65190;BME280;51777;53.570;9.984;2023-03-14T07:36:40;98380.44;;;10.77;100.00
65190;BME280;51777;53.570;9.984;2023-03-14T07:39:05;98375.25;;;10.84;100.00
65190;BME280;51777;53.570;9.984;2023-03-14T07:41:31;98372.69;;;10.77;100.00
65190;BME280;51777;53.570;9.984;2023-03-14T07:43:57;98382.44;;;10.82;100.00
65190;BME280;51777;53.570;9.984;2023-03-14T07:46:22;98379.59;;;10.90;100.00
65190;BME280;51777;53.570;9.984;2023-03-14T07:48:47;98384.59;;;10.92;100.00
65190;BME280;51777;53.570;9.984;2023-03-14T07:51:13;98380.78;;;10.94;100.00
65190;BME280;51777;53.570;9.984;2023-03-14T07:53:39;98385.97;;;10.94;100.00
65190;BME280;51777;53.570;9.984;2023-03-14T07:56:05;98388.28;;;11.02;100.00
65190;BME280;51777;53.570;9.984;2023-03-14T07:58:30;98390.00;;;11.22;100.00
65190;BME280;51777;53.570;9.984;2023-03-14T08:00:58;98392.50;;;10.97;100.00
65190;BME280;51777;53.570;9.984;2023-03-14T08:03:24;98382.81;;;10.85;100.00
65190;BME280;51777;53.570;9.984;2023-03-14T08:05:50;98383.97;;;10.89;100.00
65190;BME280;51777;53.570;9.984;2023-03-14T08:08:18;98391.31;;;10.99;100.00
65190;BME280;51777;53.570;9.984;2023-03-14T08:10:48;98387.44;;;11.15;100.00
65190;BME280;51777;53.570;9.984;2023-03-14T08:13:14;98393.09;;;12.61;100.00
65190;BME280;51777;53.570;9.984;2023-03-14T08:15:39;98398.06;;;12.45;100.00
65190;BME280;51777;53.570;9.984;2023-03-14T08:18:05;98390.66;;;12.67;100.00
65190;BME280;51777;53.570;9.984;2023-03-14T08:20:31;98391.56;;;12.35;100.00
65190;BME280;51777;53.570;9.984;2023-03-14T08:23:01;98383.41;;;11.89;100.00
65190;BME280;51777;53.570;9.984;2023-03-14T08:25:27;98383.09;;;11.79;100.00
65190;BME280;51777;53.570;9.984;2023-03-14T08:27:53;98384.81;;;11.53;100.00
65190;BME280;51777;53.570;9.984;2023-03-14T08:30:21;98384.91;;;11.40;100.00
65190;BME280;51777;53.570;9.984;2023-03-14T08:32:47;98382.25;;;11.22;100.00
65190;BME280;51777;53.570;9.984;2023-03-14T08:35:15;98371.69;;;11.23;100.00
65190;BME280;51777;53.570;9.984;2023-03-14T08:37:41;98370.78;;;11.42;100.00
65190;BME280;51777;53.570;9.984;2023-03-14T08:40:07;98380.59;;;11.34;100.00
65190;BME280;51777;53.570;9.984;2023-03-14T08:42:36;98380.22;;;11.30;100.00
65190;BME280;51777;53.570;9.984;2023-03-14T08:45:01;98374.97;;;11.43;100.00
65190;BME280;51777;53.570;9.984;2023-03-14T08:47:27;98373.84;;;11.26;100.00
65190;BME280;51777;53.570;9.984;2023-03-14T08:49:53;98372.09;;;11.20;100.00
65190;BME280;51777;53.570;9.984;2023-03-14T08:52:19;98375.06;;;11.24;100.00
65190;BME280;51777;53.570;9.984;2023-03-14T08:54:46;98382.91;;;11.10;100.00
65190;BME280;51777;53.570;9.984;2023-03-14T08:57:11;98383.84;;;11.16;100.00
65190;BME280;51777;53.570;9.984;2023-03-14T08:59:37;98380.72;;;11.07;100.00
65190;BME280;51777;53.570;9.984;2023-03-14T09:02:03;98380.34;;;11.04;100.00
65190;BME280;51777;53.570;9.984;2023-03-14T09:04:32;98375.41;;;10.96;100.00
65190;BME280;51777;53.570;9.984;2023-03-14T09:06:58;98370.63;;;10.99;100.00
65190;BME280;51777;53.570;9.984;2023-03-14T09:09:25;98375.63;;;10.94;100.00
65190;BME280;51777;53.570;9.984;2023-03-14T09:11:52;98370.03;;;10.97;100.00
65190;BME280;51777;53.570;9.984;2023-03-14T09:14:22;98371.78;;;11.03;100.00
65190;BME280;51777;53.570;9.984;2023-03-14T09:16:48;98365.63;;;11.04;100.00
65190;BME280;51777;53.570;9.984;2023-03-14T09:19:14;98373.25;;;10.93;100.00
65190;BME280;51777;53.570;9.984;2023-03-14T09:21:39;98373.63;;;10.96;100.00
65190;BME280;51777;53.570;9.984;2023-03-14T09:24:05;98366.50;;;10.92;100.00
65190;BME280;51777;53.570;9.984;2023-03-14T09:26:32;98369.25;;;10.97;100.00
65190;BME280;51777;53.570;9.984;2023-03-14T09:28:58;98374.06;;;10.86;100.00
65190;BME280;51777;53.570;9.984;2023-03-14T09:31:23;98380.97;;;10.99;100.00
65190;BME280;51777;53.570;9.984;2023-03-14T09:33:49;98393.69;;;11.01;100.00
65190;BME280;51777;53.570;9.984;2023-03-14T09:36:14;98399.28;;;10.91;100.00
65190;BME280;51777;53.570;9.984;2023-03-14T09:38:40;98393.88;;;10.99;100.00
65190;BME280;51777;53.570;9.984;2023-03-14T09:41:35;98382.34;;;11.02;100.00
65190;BME280;51777;53.570;9.984;2023-03-14T09:44:06;98393.56;;;10.82;100.00
65190;BME280;51777;53.570;9.984;2023-03-14T09:46:35;98396.00;;;10.71;100.00
65190;BME280;51777;53.570;9.984;2023-03-14T09:49:02;98398.78;;;10.63;100.00
65190;BME280;51777;53.570;9.984;2023-03-14T09:51:35;98400.78;;;10.54;100.00
65190;BME280;51777;53.570;9.984;2023-03-14T09:54:01;98423.25;;;10.60;100.00
65190;BME280;51777;53.570;9.984;2023-03-14T09:56:30;98474.75;;;10.42;100.00
65190;BME280;51777;53.570;9.984;2023-03-14T09:58:59;98488.25;;;10.24;100.00
65190;BME280;51777;53.570;9.984;2023-03-14T10:01:30;98487.97;;;9.79;100.00
65190;BME280;51777;53.570;9.984;2023-03-14T10:03:59;98508.03;;;9.70;100.00
65190;BME280;51777;53.570;9.984;2023-03-14T10:06:28;98526.19;;;9.49;100.00
65190;BME280;51777;53.570;9.984;2023-03-14T10:08:55;98530.91;;;9.39;100.00
65190;BME280;51777;53.570;9.984;2023-03-14T10:11:22;98532.03;;;9.23;100.00
65190;BME280;51777;53.570;9.984;2023-03-14T10:16:29;98551.28;;;8.93;100.00
65190;BME280;51777;53.570;9.984;2023-03-14T10:19:05;98553.06;;;8.92;100.00
65190;BME280;51777;53.570;9.984;2023-03-14T10:21:35;98550.84;;;8.82;100.00
65190;BME280;51777;53.570;9.984;2023-03-14T10:26:48;98580.44;;;8.65;100.00
65190;BME280;51777;53.570;9.984;2023-03-14T10:29:17;98588.19;;;8.44;100.00
65190;BME280;51777;53.570;9.984;2023-03-14T10:34:34;98620.22;;;8.41;100.00
65190;BME280;51777;53.570;9.984;2023-03-14T10:37:22;98642.44;;;8.28;100.00
65190;BME280;51777;53.570;9.984;2023-03-14T10:39:52;98661.81;;;8.23;100.00
65190;BME280;51777;53.570;9.984;2023-03-14T10:42:24;98679.63;;;7.89;100.00
65190;BME280;51777;53.570;9.984;2023-03-14T10:44:56;98684.59;;;7.61;100.00
65190;BME280;51777;53.570;9.984;2023-03-14T10:47:24;98682.72;;;7.55;100.00
65190;BME280;51777;53.570;9.984;2023-03-14T10:49:51;98699.03;;;7.47;100.00
65190;BME280;51777;53.570;9.984;2023-03-14T10:52:29;98716.31;;;7.01;100.00
65190;BME280;51777;53.570;9.984;2023-03-14T10:55:01;98732.91;;;7.13;100.00
65190;BME280;51777;53.570;9.984;2023-03-14T10:57:27;98750.56;;;7.16;100.00
65190;BME280;51777;53.570;9.984;2023-03-14T10:59:54;98767.25;;;6.97;100.00
65190;BME280;51777;53.570;9.984;2023-03-14T11:05:40;98784.41;;;6.74;100.00
65190;BME280;51777;53.570;9.984;2023-03-14T11:10:53;98807.84;;;6.71;100.00
65190;BME280;51777;53.570;9.984;2023-03-14T11:13:39;98801.78;;;6.64;100.00
65190;BME280;51777;53.570;9.984;2023-03-14T11:22:17;98834.78;;;6.28;100.00
65190;BME280;51777;53.570;9.984;2023-03-14T11:25:05;98870.72;;;6.36;100.00
65190;BME280;51777;53.570;9.984;2023-03-14T11:27:51;98875.06;;;6.27;100.00
65190;BME280;51777;53.570;9.984;2023-03-14T11:30:34;98896.38;;;6.36;100.00
65190;BME280;51777;53.570;9.984;2023-03-14T11:33:05;98913.84;;;6.32;100.00
65190;BME280;51777;53.570;9.984;2023-03-14T11:35:38;98915.94;;;6.37;100.00
65190;BME280;51777;53.570;9.984;2023-03-14T11:38:40;98927.16;;;6.44;100.00
65190;BME280;51777;53.570;9.984;2023-03-14T11:41:30;98943.06;;;6.47;100.00
65190;BME280;51777;53.570;9.984;2023-03-14T11:43:59;98942.53;;;6.60;100.00
65190;BME280;51777;53.570;9.984;2023-03-14T11:46:34;98940.28;;;6.65;100.00
65190;BME280;51777;53.570;9.984;2023-03-14T11:49:17;98955.50;;;6.83;100.00
65190;BME280;51777;53.570;9.984;2023-03-14T11:51:50;98946.84;;;7.15;100.00
65190;BME280;51777;53.570;9.984;2023-03-14T11:57:01;98967.84;;;7.58;100.00
65190;BME280;51777;53.570;9.984;2023-03-14T12:02:33;98972.97;;;7.27;100.00
65190;BME280;51777;53.570;9.984;2023-03-14T12:10:20;98973.78;;;6.80;100.00
65190;BME280;51777;53.570;9.984;2023-03-14T12:12:47;98987.91;;;6.76;100.00
65190;BME280;51777;53.570;9.984;2023-03-14T12:15:21;98996.88;;;6.88;100.00
65190;BME280;51777;53.570;9.984;2023-03-14T12:17:53;99000.56;;;6.94;100.00
65190;BME280;51777;53.570;9.984;2023-03-14T12:20:29;99026.41;;;7.00;100.00
65190;BME280;51777;53.570;9.984;2023-03-14T12:23:02;99023.56;;;6.79;100.00
65190;BME280;51777;53.570;9.984;2023-03-14T12:25:31;99029.66;;;6.86;100.00
65190;BME280;51777;53.570;9.984;2023-03-14T12:30:38;99034.44;;;6.97;100.00
65190;BME280;51777;53.570;9.984;2023-03-14T12:35:42;99049.81;;;7.22;100.00
65190;BME280;51777;53.570;9.984;2023-03-14T12:43:41;99062.66;;;7.22;100.00
65190;BME280;51777;53.570;9.984;2023-03-14T12:46:21;99058.69;;;6.95;100.00
65190;BME280;51777;53.570;9.984;2023-03-14T12:51:37;99063.63;;;7.13;100.00
65190;BME280;51777;53.570;9.984;2023-03-14T12:59:33;99099.91;;;7.34;100.00
65190;BME280;51777;53.570;9.984;2023-03-14T13:04:34;99127.38;;;7.25;100.00
65190;BME280;51777;53.570;9.984;2023-03-14T13:07:02;99126.13;;;7.21;100.00
65190;BME280;51777;53.570;9.984;2023-03-14T13:12:25;99147.78;;;7.19;100.00
65190;BME280;51777;53.570;9.984;2023-03-14T13:14:53;99154.19;;;7.39;100.00
65190;BME280;51777;53.570;9.984;2023-03-14T13:17:39;99157.25;;;7.34;100.00
65190;BME280;51777;53.570;9.984;2023-03-14T13:20:14;99157.47;;;7.72;100.00
65190;BME280;51777;53.570;9.984;2023-03-14T13:22:46;99180.91;;;8.24;100.00
65190;BME280;51777;53.570;9.984;2023-03-14T13:25:12;99187.22;;;8.99;100.00
65190;BME280;51777;53.570;9.984;2023-03-14T13:27:37;99201.34;;;9.03;100.00
65190;BME280;51777;53.570;9.984;2023-03-14T13:32:43;99223.28;;;8.53;100.00
65190;BME280;51777;53.570;9.984;2023-03-14T13:35:24;99238.34;;;8.64;100.00
65190;BME280;51777;53.570;9.984;2023-03-14T13:37:56;99256.03;;;8.67;100.00
65190;BME280;51777;53.570;9.984;2023-03-14T13:40:33;99248.06;;;8.54;100.00
65190;BME280;51777;53.570;9.984;2023-03-14T13:43:13;99261.50;;;8.33;100.00
65190;BME280;51777;53.570;9.984;2023-03-14T13:45:53;99269.94;;;8.58;100.00
65190;BME280;51777;53.570;9.984;2023-03-14T13:48:21;99263.56;;;8.46;100.00
65190;BME280;51777;53.570;9.984;2023-03-14T13:51:00;99274.22;;;8.74;100.00
65190;BME280;51777;53.570;9.984;2023-03-14T13:53:27;99272.22;;;8.84;100.00
65190;BME280;51777;53.570;9.984;2023-03-14T13:55:53;99271.91;;;8.56;100.00
65190;BME280;51777;53.570;9.984;2023-03-14T13:58:25;99273.59;;;8.72;100.00
65190;BME280;51777;53.570;9.984;2023-03-14T14:01:06;99270.75;;;8.59;100.00
65190;BME280;51777;53.570;9.984;2023-03-14T14:03:41;99300.00;;;8.35;100.00
65190;BME280;51777;53.570;9.984;2023-03-14T14:08:51;99317.13;;;7.95;100.00